Sumifukumaru No.5 — JD3058 — position and weather

sailwx.info

Track history (hours):
 
Tides and Currents Weather Stations Pressure Air Temp Water Temp Dewpoint Dewpoint Depression Visibility Wind Speed Wind Dir Waves Ship Positions

Sumifukumaru No.5

Last reported at 2017-Nov-20 00:29 UTC. Time now 2017-Nov-21 14:03 UTC.
Position N 34°15' E 135°06'.

Length 75 m; draft 4.4 m.

Type: Cargo ship. MMSI: 431001371.

Date/timePositionNaut miles runAvg speedWind from/ knotsBaromVisibWave heightAir tempDewpointWater temp
2017-Nov-20 00:29N 34°15' E 135°06'0 0.0
2017-Nov-19 23:59N 34°15' E 135°06'1 1.3
2017-Nov-19 23:30N 34°15' E 135°06'  
2017-Nov-16 09:46N 34°37' E 134°56'414.2
2017-Nov-16 09:27N 34°37' E 135°01'613.3
2017-Nov-16 09:00N 34°36' E 135°08'612.3
2017-Nov-16 08:29N 34°36' E 135°16'611.9
2017-Nov-16 08:00N 34°38' E 135°23'4 1.3
2017-Nov-16 04:50N 34°40' E 135°27'0 1.3
2017-Nov-16 04:28N 34°40' E 135°27'510.6
2017-Nov-16 04:00N 34°37' E 135°22'611.7
2017-Nov-16 03:29N 34°32' E 135°17'611.4
2017-Nov-16 02:55N 34°27' E 135°12'1010.9
2017-Nov-16 01:57N 34°19' E 135°04'4 9.2
2017-Nov-16 01:30N 34°15' E 135°03'217 8.4
2017-Nov-14 23:47N 34°59' E 139°22'311.4
2017-Nov-14 23:31N 35°00' E 139°25'611.5
2017-Nov-14 23:00N 35°03' E 139°31'611.5
2017-Nov-14 22:29N 35°06' E 139°38'611.8
2017-Nov-14 22:00N 35°09' E 139°43'612.0
2017-Nov-14 21:30N 35°15' E 139°46'612.5
2017-Nov-14 21:00N 35°20' E 139°42'611.0
2017-Nov-14 20:30N 35°25' E 139°44'510.1
2017-Nov-14 20:00N 35°22' E 139°49'2 0.1
2017-Nov-13 22:15N 35°21' E 139°51'1 4.5
2017-Nov-13 22:00N 35°22' E 139°50'16 0.4
2017-Nov-12 06:30N 35°37' E 139°59'611.8
2017-Nov-12 06:00N 35°33' E 139°53'612.4
2017-Nov-12 05:30N 35°29' E 139°48'5 9.2
2017-Nov-12 05:00N 35°27' E 139°42'0 0.1
2017-Nov-12 04:30N 35°27' E 139°42'0 0.0
2017-Nov-12 04:00N 35°27' E 139°42'0 0.0
2017-Nov-12 03:30N 35°27' E 139°42'0 0.1
2017-Nov-12 03:00N 35°27' E 139°42'0 0.0
2017-Nov-12 02:30N 35°27' E 139°42'0 0.0
2017-Nov-12 02:00N 35°27' E 139°42'3 6.2
2017-Nov-12 01:30N 35°24' E 139°42'3 6.4
2017-Nov-12 01:00N 35°23' E 139°38'0 0.0
2017-Nov-12 00:30N 35°23' E 139°38'0 0.0
2017-Nov-12 00:00N 35°23' E 139°38'0 0.0
2017-Nov-11 23:30N 35°23' E 139°38'0 0.0
2017-Nov-11 23:00N 35°23' E 139°38'0 0.1
2017-Nov-11 22:30N 35°23' E 139°38'0 0.1
2017-Nov-11 22:00N 35°23' E 139°38'1 2.1
2017-Nov-11 21:31N 35°24' E 139°39'510.1
2017-Nov-11 21:01N 35°20' E 139°43'510.7
2017-Nov-11 20:30N 35°15' E 139°47'510.5
2017-Nov-11 20:01N 35°10' E 139°46'510.2
2017-Nov-11 19:31N 35°05' E 139°44'611.4
2017-Nov-11 19:00N 35°03' E 139°37'  
Track history (hours):
 
Tides and Currents Weather Stations Pressure Air Temp Water Temp Dewpoint Dewpoint Depression Visibility Wind Speed Wind Dir Waves Ship Positions

Sumifukumaru No.5

Last reported at 2017-Nov-20 00:29 UTC. Time now 2017-Nov-21 14:03 UTC.
Position N 34°15' E 135°06'.

Length 75 m; draft 4.4 m.

Type: Cargo ship. MMSI: 431001371.

Date/timePositionNaut miles runAvg speedWind from/ knotsBaromVisibWave heightAir tempDewpointWater temp
2017-Nov-20 00:29N 34°15' E 135°06'0 0.0
2017-Nov-19 23:59N 34°15' E 135°06'1 1.3
2017-Nov-19 23:30N 34°15' E 135°06'  
2017-Nov-16 09:46N 34°37' E 134°56'414.2
2017-Nov-16 09:27N 34°37' E 135°01'613.3
2017-Nov-16 09:00N 34°36' E 135°08'612.3
2017-Nov-16 08:29N 34°36' E 135°16'611.9
2017-Nov-16 08:00N 34°38' E 135°23'4 1.3
2017-Nov-16 04:50N 34°40' E 135°27'0 1.3
2017-Nov-16 04:28N 34°40' E 135°27'510.6
2017-Nov-16 04:00N 34°37' E 135°22'611.7
2017-Nov-16 03:29N 34°32' E 135°17'611.4
2017-Nov-16 02:55N 34°27' E 135°12'1010.9
2017-Nov-16 01:57N 34°19' E 135°04'4 9.2
2017-Nov-16 01:30N 34°15' E 135°03'217 8.4
2017-Nov-14 23:47N 34°59' E 139°22'311.4
2017-Nov-14 23:31N 35°00' E 139°25'611.5
2017-Nov-14 23:00N 35°03' E 139°31'611.5
2017-Nov-14 22:29N 35°06' E 139°38'611.8
2017-Nov-14 22:00N 35°09' E 139°43'612.0
2017-Nov-14 21:30N 35°15' E 139°46'612.5
2017-Nov-14 21:00N 35°20' E 139°42'611.0
2017-Nov-14 20:30N 35°25' E 139°44'510.1
2017-Nov-14 20:00N 35°22' E 139°49'2 0.1
2017-Nov-13 22:15N 35°21' E 139°51'1 4.5
2017-Nov-13 22:00N 35°22' E 139°50'16 0.4
2017-Nov-12 06:30N 35°37' E 139°59'611.8
2017-Nov-12 06:00N 35°33' E 139°53'612.4
2017-Nov-12 05:30N 35°29' E 139°48'5 9.2
2017-Nov-12 05:00N 35°27' E 139°42'0 0.1
2017-Nov-12 04:30N 35°27' E 139°42'0 0.0
2017-Nov-12 04:00N 35°27' E 139°42'0 0.0
2017-Nov-12 03:30N 35°27' E 139°42'0 0.1
2017-Nov-12 03:00N 35°27' E 139°42'0 0.0
2017-Nov-12 02:30N 35°27' E 139°42'0 0.0
2017-Nov-12 02:00N 35°27' E 139°42'3 6.2
2017-Nov-12 01:30N 35°24' E 139°42'3 6.4
2017-Nov-12 01:00N 35°23' E 139°38'0 0.0
2017-Nov-12 00:30N 35°23' E 139°38'0 0.0
2017-Nov-12 00:00N 35°23' E 139°38'0 0.0
2017-Nov-11 23:30N 35°23' E 139°38'0 0.0
2017-Nov-11 23:00N 35°23' E 139°38'0 0.1
2017-Nov-11 22:30N 35°23' E 139°38'0 0.1
2017-Nov-11 22:00N 35°23' E 139°38'1 2.1
2017-Nov-11 21:31N 35°24' E 139°39'510.1
2017-Nov-11 21:01N 35°20' E 139°43'510.7
2017-Nov-11 20:30N 35°15' E 139°47'510.5
2017-Nov-11 20:01N 35°10' E 139°46'510.2
2017-Nov-11 19:31N 35°05' E 139°44'611.4
2017-Nov-11 19:00N 35°03' E 139°37'  

Dump ship's entire track history